Airfield :
LOGIN :

Register | Disclaimer

   EN    FR    IT 

 










Legend :    VFR   Marginal VFR   IFR   Intensive IFR   Very Intensive IFR
Visi :
Ceiling :
>= 8 km
>= 3000ft
5 to 8 km
1000 to 3000 ft
1500m to 5 km
500 to 1000 ft
800 to 1500m
200 to 500 ft
< 800m
< 200 ft
Symbols :   Thunderstorms  Fog  Heavy snow  Heavy precipitations  Wind > 20 kt
SIGMETs :     Misc.  Thunderstorms  Icing  Turbulence  Mountain Waves  Volcanic Ashes






- Airport Elevation : 870 ft
- IATA code : ETZ


LFJL - Metz Nancy Lorraine

CURRENT METAR :
  • 261200Z AUTO 28019KT 9999 OVC015 09/06 Q1003 BECMG OVC008

EXPIRED METARs :
  • 261130Z AUTO 28019KT 9999 OVC012 08/06 Q1003 BECMG OVC008
  • 261100Z AUTO 27019KT 9999 OVC012 08/06 Q1002 TEMPO 26018G30KT 4000 RA BECMG OVC008
  • 261030Z AUTO 27020KT 9999 -DZ OVC011 08/06 Q1002 TEMPO 26018G30KT 4000 RA BECMG OVC008
  • 261000Z AUTO 27018KT 8000 -DZ OVC011 08/06 Q1002 TEMPO 4000 RA BECMG 26018G30KT
  • 260930Z AUTO 27018KT 9999 OVC012 08/06 Q1002 TEMPO 4000 RA BECMG 26018G30KT

TAF TAF LFJL
Valid from the 26 at 12:00 until the 27 at 12:00 UTC


261100Z 2612/2712 26018G30KT 8000 -RA OVC020
BECMG 2612/2615 27012KT OVC008
PROB40
TEMPO 2618/2709 3000 RADZ BKN003
BECMG 2702/2705 17012KT
BECMG 2709/2712 NSW OVC012



MET'MAP, your aeronautical weather chart ! - Copyright ORBIFLY December 2007 - Disclaimer

ORBIFLY MET'MAP TEAM :

Programming & Development : Alexandra Zaïnal
Concept & original design : Baudouin d'Aumeries
Assistance for programming : Marc-Olivier Méhu
Technical & hardware support : Manuel Goepfert

Contact : metmap@orbifly.com




SOURCES & CREDITS :

   NOAA